sensor_id;sensor_type;location;lat;lon;timestamp;temperature;humidity
67249;SHT31;63247;54.300;18.592;2023-02-03T00:01:46;-3.31;99.99
67249;SHT31;63247;54.300;18.592;2023-02-03T00:04:11;-3.34;99.99
67249;SHT31;63247;54.300;18.592;2023-02-03T00:06:37;-3.34;99.99
67249;SHT31;63247;54.300;18.592;2023-02-03T00:09:03;-3.35;99.99
67249;SHT31;63247;54.300;18.592;2023-02-03T00:11:30;-3.39;99.99
67249;SHT31;63247;54.300;18.592;2023-02-03T00:13:56;-3.41;99.99
67249;SHT31;63247;54.300;18.592;2023-02-03T00:16:21;-3.47;99.99
67249;SHT31;63247;54.300;18.592;2023-02-03T00:18:47;-3.49;99.99
67249;SHT31;63247;54.300;18.592;2023-02-03T00:21:12;-3.51;99.99
67249;SHT31;63247;54.300;18.592;2023-02-03T00:23:40;-3.44;99.99
67249;SHT31;63247;54.300;18.592;2023-02-03T00:26:07;-3.44;99.99
67249;SHT31;63247;54.300;18.592;2023-02-03T00:28:32;-3.42;99.99
67249;SHT31;63247;54.300;18.592;2023-02-03T00:30:58;-3.42;99.99
67249;SHT31;63247;54.300;18.592;2023-02-03T00:33:23;-3.39;99.99
67249;SHT31;63247;54.300;18.592;2023-02-03T00:35:48;-3.35;99.99
67249;SHT31;63247;54.300;18.592;2023-02-03T00:38:14;-3.41;99.99
67249;SHT31;63247;54.300;18.592;2023-02-03T00:40:39;-3.44;99.99
67249;SHT31;63247;54.300;18.592;2023-02-03T00:43:05;-3.42;99.99
67249;SHT31;63247;54.300;18.592;2023-02-03T00:45:30;-3.47;99.99
67249;SHT31;63247;54.300;18.592;2023-02-03T00:47:55;-3.52;99.99
67249;SHT31;63247;54.300;18.592;2023-02-03T00:50:21;-3.55;99.99
67249;SHT31;63247;54.300;18.592;2023-02-03T00:52:46;-3.60;99.99
67249;SHT31;63247;54.300;18.592;2023-02-03T00:55:11;-3.55;99.99
67249;SHT31;63247;54.300;18.592;2023-02-03T00:57:37;-3.62;99.99
67249;SHT31;63247;54.300;18.592;2023-02-03T01:00:03;-3.48;99.99
67249;SHT31;63247;54.300;18.592;2023-02-03T01:02:28;-3.55;99.99
67249;SHT31;63247;54.300;18.592;2023-02-03T01:04:54;-3.45;99.99
67249;SHT31;63247;54.300;18.592;2023-02-03T01:07:19;-3.48;99.99
67249;SHT31;63247;54.300;18.592;2023-02-03T01:09:44;-3.54;99.99
67249;SHT31;63247;54.300;18.592;2023-02-03T01:12:10;-3.42;99.99
67249;SHT31;63247;54.300;18.592;2023-02-03T01:14:35;-3.44;99.99
67249;SHT31;63247;54.300;18.592;2023-02-03T01:17:01;-3.48;99.99
67249;SHT31;63247;54.300;18.592;2023-02-03T01:19:26;-3.44;99.99
67249;SHT31;63247;54.300;18.592;2023-02-03T01:21:51;-3.37;99.99
67249;SHT31;63247;54.300;18.592;2023-02-03T01:24:17;-3.30;99.99
67249;SHT31;63247;54.300;18.592;2023-02-03T01:26:43;-3.24;99.99
67249;SHT31;63247;54.300;18.592;2023-02-03T01:29:08;-3.25;99.99
67249;SHT31;63247;54.300;18.592;2023-02-03T01:31:36;-3.28;99.99
67249;SHT31;63247;54.300;18.592;2023-02-03T01:34:05;-3.39;99.99
67249;SHT31;63247;54.300;18.592;2023-02-03T01:36:32;-3.39;99.99
67249;SHT31;63247;54.300;18.592;2023-02-03T01:38:58;-3.44;99.99
67249;SHT31;63247;54.300;18.592;2023-02-03T01:41:26;-3.48;99.99
67249;SHT31;63247;54.300;18.592;2023-02-03T01:43:53;-3.49;99.99
67249;SHT31;63247;54.300;18.592;2023-02-03T01:46:30;-3.48;99.99
67249;SHT31;63247;54.300;18.592;2023-02-03T01:49:07;-3.49;99.99
67249;SHT31;63247;54.300;18.592;2023-02-03T01:51:37;-3.51;99.99
67249;SHT31;63247;54.300;18.592;2023-02-03T01:54:03;-3.45;99.99
67249;SHT31;63247;54.300;18.592;2023-02-03T01:56:31;-3.45;99.99
67249;SHT31;63247;54.300;18.592;2023-02-03T01:58:59;-3.49;99.99
67249;SHT31;63247;54.300;18.592;2023-02-03T02:01:26;-3.45;99.99
67249;SHT31;63247;54.300;18.592;2023-02-03T02:03:56;-3.39;99.99
67249;SHT31;63247;54.300;18.592;2023-02-03T02:06:22;-3.38;99.99
67249;SHT31;63247;54.300;18.592;2023-02-03T02:08:50;-3.38;99.99
67249;SHT31;63247;54.300;18.592;2023-02-03T02:11:16;-3.34;99.99
67249;SHT31;63247;54.300;18.592;2023-02-03T02:13:43;-3.30;99.99
67249;SHT31;63247;54.300;18.592;2023-02-03T02:35:53;-3.25;99.99
67249;SHT31;63247;54.300;18.592;2023-02-03T02:38:58;-3.30;99.99
67249;SHT31;63247;54.300;18.592;2023-02-03T02:41:42;-3.22;99.99
67249;SHT31;63247;54.300;18.592;2023-02-03T02:44:13;-3.14;99.99
67249;SHT31;63247;54.300;18.592;2023-02-03T02:46:42;-3.15;99.99
67249;SHT31;63247;54.300;18.592;2023-02-03T02:49:16;-3.04;99.99
67249;SHT31;63247;54.300;18.592;2023-02-03T02:51:45;-2.97;99.99
67249;SHT31;63247;54.300;18.592;2023-02-03T02:54:15;-2.89;99.99
67249;SHT31;63247;54.300;18.592;2023-02-03T02:56:44;-2.86;99.99
67249;SHT31;63247;54.300;18.592;2023-02-03T02:59:11;-2.84;99.99
67249;SHT31;63247;54.300;18.592;2023-02-03T03:01:38;-2.72;99.99
67249;SHT31;63247;54.300;18.592;2023-02-03T03:04:07;-2.80;99.99
67249;SHT31;63247;54.300;18.592;2023-02-03T03:06:38;-2.81;99.99
67249;SHT31;63247;54.300;18.592;2023-02-03T03:09:08;-2.80;99.99
67249;SHT31;63247;54.300;18.592;2023-02-03T03:11:42;-2.75;99.99
67249;SHT31;63247;54.300;18.592;2023-02-03T03:14:11;-2.77;99.99
67249;SHT31;63247;54.300;18.592;2023-02-03T03:16:38;-2.79;99.99
67249;SHT31;63247;54.300;18.592;2023-02-03T03:19:11;-2.81;99.99
67249;SHT31;63247;54.300;18.592;2023-02-03T03:21:48;-2.83;99.99
67249;SHT31;63247;54.300;18.592;2023-02-03T03:24:18;-2.81;99.99
67249;SHT31;63247;54.300;18.592;2023-02-03T03:29:31;-2.80;99.99
67249;SHT31;63247;54.300;18.592;2023-02-03T03:32:00;-2.83;99.99
67249;SHT31;63247;54.300;18.592;2023-02-03T03:34:27;-2.79;99.99
67249;SHT31;63247;54.300;18.592;2023-02-03T03:37:02;-2.79;99.99
67249;SHT31;63247;54.300;18.592;2023-02-03T03:39:55;-2.76;99.99
67249;SHT31;63247;54.300;18.592;2023-02-03T03:45:06;-2.77;99.99
67249;SHT31;63247;54.300;18.592;2023-02-03T03:50:51;-2.75;99.99
67249;SHT31;63247;54.300;18.592;2023-02-03T03:53:18;-2.70;99.99
67249;SHT31;63247;54.300;18.592;2023-02-03T03:55:48;-2.72;99.99
67249;SHT31;63247;54.300;18.592;2023-02-03T03:58:20;-2.68;99.99
67249;SHT31;63247;54.300;18.592;2023-02-03T04:00:47;-2.66;99.99
67249;SHT31;63247;54.300;18.592;2023-02-03T04:03:16;-2.68;99.99
67249;SHT31;63247;54.300;18.592;2023-02-03T04:05:43;-2.70;99.99
67249;SHT31;63247;54.300;18.592;2023-02-03T04:08:09;-2.72;99.99
67249;SHT31;63247;54.300;18.592;2023-02-03T04:10:36;-2.69;99.99
67249;SHT31;63247;54.300;18.592;2023-02-03T04:13:02;-2.69;99.99
67249;SHT31;63247;54.300;18.592;2023-02-03T04:15:29;-2.77;99.99
67249;SHT31;63247;54.300;18.592;2023-02-03T04:17:54;-2.79;99.99
67249;SHT31;63247;54.300;18.592;2023-02-03T04:20:22;-2.81;99.99
67249;SHT31;63247;54.300;18.592;2023-02-03T04:22:47;-2.83;99.99
67249;SHT31;63247;54.300;18.592;2023-02-03T04:25:13;-2.80;99.99
67249;SHT31;63247;54.300;18.592;2023-02-03T04:27:38;-2.73;99.99
67249;SHT31;63247;54.300;18.592;2023-02-03T04:30:04;-2.72;99.99
67249;SHT31;63247;54.300;18.592;2023-02-03T04:32:30;-2.68;99.99
67249;SHT31;63247;54.300;18.592;2023-02-03T04:34:56;-2.60;99.99
67249;SHT31;63247;54.300;18.592;2023-02-03T04:37:22;-2.53;99.99
67249;SHT31;63247;54.300;18.592;2023-02-03T04:39:48;-2.56;99.99
67249;SHT31;63247;54.300;18.592;2023-02-03T04:42:16;-2.49;99.99
67249;SHT31;63247;54.300;18.592;2023-02-03T04:44:42;-2.49;99.99
67249;SHT31;63247;54.300;18.592;2023-02-03T04:47:07;-2.44;99.99
67249;SHT31;63247;54.300;18.592;2023-02-03T04:49:32;-2.42;99.99
67249;SHT31;63247;54.300;18.592;2023-02-03T04:51:58;-2.32;99.99
67249;SHT31;63247;54.300;18.592;2023-02-03T04:54:23;-2.34;99.99
67249;SHT31;63247;54.300;18.592;2023-02-03T04:56:49;-2.32;99.99
67249;SHT31;63247;54.300;18.592;2023-02-03T04:59:14;-2.27;99.99
67249;SHT31;63247;54.300;18.592;2023-02-03T05:01:39;-2.24;99.99
67249;SHT31;63247;54.300;18.592;2023-02-03T05:04:05;-2.25;99.99
67249;SHT31;63247;54.300;18.592;2023-02-03T05:06:30;-2.20;99.99
67249;SHT31;63247;54.300;18.592;2023-02-03T05:08:58;-2.18;99.99
67249;SHT31;63247;54.300;18.592;2023-02-03T05:11:24;-2.21;99.99
67249;SHT31;63247;54.300;18.592;2023-02-03T05:13:50;-2.11;99.99
67249;SHT31;63247;54.300;18.592;2023-02-03T05:16:15;-2.24;99.99
67249;SHT31;63247;54.300;18.592;2023-02-03T05:18:40;-2.22;99.99
67249;SHT31;63247;54.300;18.592;2023-02-03T05:21:06;-2.24;99.99
67249;SHT31;63247;54.300;18.592;2023-02-03T05:23:32;-2.24;99.99
67249;SHT31;63247;54.300;18.592;2023-02-03T05:25:57;-2.27;99.99
67249;SHT31;63247;54.300;18.592;2023-02-03T05:28:23;-2.22;99.99
67249;SHT31;63247;54.300;18.592;2023-02-03T05:30:48;-2.22;99.99
67249;SHT31;63247;54.300;18.592;2023-02-03T05:33:14;-2.21;99.99
67249;SHT31;63247;54.300;18.592;2023-02-03T05:35:39;-2.25;99.99
67249;SHT31;63247;54.300;18.592;2023-02-03T05:38:05;-2.25;99.99
67249;SHT31;63247;54.300;18.592;2023-02-03T05:40:30;-2.27;99.99
67249;SHT31;63247;54.300;18.592;2023-02-03T05:43:14;-2.25;99.99
67249;SHT31;63247;54.300;18.592;2023-02-03T05:45:40;-2.24;99.99
67249;SHT31;63247;54.300;18.592;2023-02-03T05:48:05;-2.25;99.99
67249;SHT31;63247;54.300;18.592;2023-02-03T05:50:34;-2.21;99.99
67249;SHT31;63247;54.300;18.592;2023-02-03T05:53:00;-2.25;99.99
67249;SHT31;63247;54.300;18.592;2023-02-03T05:55:27;-2.20;99.99
67249;SHT31;63247;54.300;18.592;2023-02-03T05:57:53;-2.24;99.99
67249;SHT31;63247;54.300;18.592;2023-02-03T06:00:20;-2.21;99.99
67249;SHT31;63247;54.300;18.592;2023-02-03T06:02:57;-2.20;99.99
67249;SHT31;63247;54.300;18.592;2023-02-03T06:05:23;-2.20;99.99
67249;SHT31;63247;54.300;18.592;2023-02-03T06:07:49;-2.17;99.99
67249;SHT31;63247;54.300;18.592;2023-02-03T06:10:15;-2.17;99.99
67249;SHT31;63247;54.300;18.592;2023-02-03T06:12:40;-2.15;99.99
67249;SHT31;63247;54.300;18.592;2023-02-03T06:15:06;-2.20;99.99
67249;SHT31;63247;54.300;18.592;2023-02-03T06:17:31;-2.12;99.99
67249;SHT31;63247;54.300;18.592;2023-02-03T06:19:57;-2.14;99.99
67249;SHT31;63247;54.300;18.592;2023-02-03T06:22:23;-2.14;99.99
67249;SHT31;63247;54.300;18.592;2023-02-03T06:24:48;-2.11;99.99
67249;SHT31;63247;54.300;18.592;2023-02-03T06:27:14;-2.07;99.99
67249;SHT31;63247;54.300;18.592;2023-02-03T06:29:40;-2.02;99.99
67249;SHT31;63247;54.300;18.592;2023-02-03T06:32:06;-2.04;99.99
67249;SHT31;63247;54.300;18.592;2023-02-03T06:34:32;-2.05;99.99
67249;SHT31;63247;54.300;18.592;2023-02-03T06:36:57;-2.00;99.99
67249;SHT31;63247;54.300;18.592;2023-02-03T06:39:23;-2.04;99.99
67249;SHT31;63247;54.300;18.592;2023-02-03T06:41:48;-2.05;99.99
67249;SHT31;63247;54.300;18.592;2023-02-03T06:44:16;-1.94;99.99
67249;SHT31;63247;54.300;18.592;2023-02-03T06:46:41;-1.93;99.99
67249;SHT31;63247;54.300;18.592;2023-02-03T06:49:08;-2.00;99.99
67249;SHT31;63247;54.300;18.592;2023-02-03T06:51:33;-1.93;99.99
67249;SHT31;63247;54.300;18.592;2023-02-03T06:53:59;-2.01;99.99
67249;SHT31;63247;54.300;18.592;2023-02-03T06:56:24;-1.97;99.99
67249;SHT31;63247;54.300;18.592;2023-02-03T06:58:50;-1.97;99.99
67249;SHT31;63247;54.300;18.592;2023-02-03T07:01:15;-2.02;99.99
67249;SHT31;63247;54.300;18.592;2023-02-03T07:03:40;-1.95;99.99
67249;SHT31;63247;54.300;18.592;2023-02-03T07:06:06;-1.94;99.99
67249;SHT31;63247;54.300;18.592;2023-02-03T07:08:31;-1.90;99.99
67249;SHT31;63247;54.300;18.592;2023-02-03T07:10:57;-1.87;99.99
67249;SHT31;63247;54.300;18.592;2023-02-03T07:13:22;-1.89;99.99
67249;SHT31;63247;54.300;18.592;2023-02-03T07:15:48;-1.86;99.99
67249;SHT31;63247;54.300;18.592;2023-02-03T07:18:13;-1.84;99.99
67249;SHT31;63247;54.300;18.592;2023-02-03T07:20:39;-1.80;99.99
67249;SHT31;63247;54.300;18.592;2023-02-03T07:23:04;-1.79;99.99
67249;SHT31;63247;54.300;18.592;2023-02-03T07:25:30;-1.76;99.99
67249;SHT31;63247;54.300;18.592;2023-02-03T07:27:55;-1.76;99.99
67249;SHT31;63247;54.300;18.592;2023-02-03T07:30:21;-1.72;99.99
67249;SHT31;63247;54.300;18.592;2023-02-03T07:32:47;-1.67;99.99
67249;SHT31;63247;54.300;18.592;2023-02-03T07:35:13;-1.63;99.99
67249;SHT31;63247;54.300;18.592;2023-02-03T07:37:39;-1.62;99.99
67249;SHT31;63247;54.300;18.592;2023-02-03T07:40:04;-1.49;99.99
67249;SHT31;63247;54.300;18.592;2023-02-03T07:42:30;-1.52;99.99
67249;SHT31;63247;54.300;18.592;2023-02-03T07:44:55;-1.48;99.99
67249;SHT31;63247;54.300;18.592;2023-02-03T07:47:20;-1.49;99.99
67249;SHT31;63247;54.300;18.592;2023-02-03T07:49:46;-1.48;99.99
67249;SHT31;63247;54.300;18.592;2023-02-03T07:52:11;-1.46;99.99
67249;SHT31;63247;54.300;18.592;2023-02-03T07:54:36;-1.45;99.99
67249;SHT31;63247;54.300;18.592;2023-02-03T07:57:02;-1.36;99.99
67249;SHT31;63247;54.300;18.592;2023-02-03T07:59:27;-1.35;99.99
67249;SHT31;63247;54.300;18.592;2023-02-03T08:01:52;-1.36;99.99
67249;SHT31;63247;54.300;18.592;2023-02-03T08:04:21;-1.31;99.99
67249;SHT31;63247;54.300;18.592;2023-02-03T08:06:46;-1.27;99.99
67249;SHT31;63247;54.300;18.592;2023-02-03T08:09:11;-1.28;99.99
67249;SHT31;63247;54.300;18.592;2023-02-03T08:11:37;-1.18;99.99
67249;SHT31;63247;54.300;18.592;2023-02-03T08:14:02;-1.24;99.99
67249;SHT31;63247;54.300;18.592;2023-02-03T08:16:28;-1.22;99.99
67249;SHT31;63247;54.300;18.592;2023-02-03T08:18:53;-1.16;99.99
67249;SHT31;63247;54.300;18.592;2023-02-03T08:21:18;-1.18;99.99
67249;SHT31;63247;54.300;18.592;2023-02-03T08:23:44;-1.15;99.99
67249;SHT31;63247;54.300;18.592;2023-02-03T08:26:09;-1.05;99.99
67249;SHT31;63247;54.300;18.592;2023-02-03T08:28:34;-1.05;99.99
67249;SHT31;63247;54.300;18.592;2023-02-03T08:31:00;-0.98;99.99
67249;SHT31;63247;54.300;18.592;2023-02-03T08:33:25;-1.00;99.99
67249;SHT31;63247;54.300;18.592;2023-02-03T08:35:52;-0.97;99.99
67249;SHT31;63247;54.300;18.592;2023-02-03T08:38:18;-0.87;99.99
67249;SHT31;63247;54.300;18.592;2023-02-03T08:40:45;-0.93;99.99
67249;SHT31;63247;54.300;18.592;2023-02-03T08:43:11;-0.98;99.99
67249;SHT31;63247;54.300;18.592;2023-02-03T08:45:38;-0.84;99.99
67249;SHT31;63247;54.300;18.592;2023-02-03T08:48:04;-0.84;99.99
67249;SHT31;63247;54.300;18.592;2023-02-03T08:50:29;-0.80;99.99
67249;SHT31;63247;54.300;18.592;2023-02-03T08:52:55;-0.72;99.99
67249;SHT31;63247;54.300;18.592;2023-02-03T08:55:20;-0.70;99.99
67249;SHT31;63247;54.300;18.592;2023-02-03T08:57:46;-0.70;99.99
67249;SHT31;63247;54.300;18.592;2023-02-03T09:00:12;-0.74;99.99
67249;SHT31;63247;54.300;18.592;2023-02-03T09:02:38;-0.72;99.99
67249;SHT31;63247;54.300;18.592;2023-02-03T09:05:04;-0.73;99.99
67249;SHT31;63247;54.300;18.592;2023-02-03T09:07:29;-0.67;99.99
67249;SHT31;63247;54.300;18.592;2023-02-03T09:09:55;-0.74;99.99
67249;SHT31;63247;54.300;18.592;2023-02-03T09:12:20;-0.63;99.99
67249;SHT31;63247;54.300;18.592;2023-02-03T09:14:46;-0.66;99.99
67249;SHT31;63247;54.300;18.592;2023-02-03T09:17:11;-0.62;99.99
67249;SHT31;63247;54.300;18.592;2023-02-03T09:19:36;-0.66;99.99
67249;SHT31;63247;54.300;18.592;2023-02-03T09:22:02;-0.62;99.99
67249;SHT31;63247;54.300;18.592;2023-02-03T09:24:28;-0.70;99.99
67249;SHT31;63247;54.300;18.592;2023-02-03T09:26:53;-0.72;99.99
67249;SHT31;63247;54.300;18.592;2023-02-03T09:29:20;-0.64;99.99
67249;SHT31;63247;54.300;18.592;2023-02-03T09:31:48;-0.66;99.99
67249;SHT31;63247;54.300;18.592;2023-02-03T09:34:13;-0.66;99.99
67249;SHT31;63247;54.300;18.592;2023-02-03T09:36:39;-0.69;99.99
67249;SHT31;63247;54.300;18.592;2023-02-03T09:39:04;-0.57;99.99
67249;SHT31;63247;54.300;18.592;2023-02-03T09:41:46;-0.59;99.99
67249;SHT31;63247;54.300;18.592;2023-02-03T09:47:26;-0.52;99.99
67249;SHT31;63247;54.300;18.592;2023-02-03T09:49:52;-0.59;99.99
67249;SHT31;63247;54.300;18.592;2023-02-03T09:52:23;-0.63;99.99
67249;SHT31;63247;54.300;18.592;2023-02-03T09:55:08;-0.57;99.99
67249;SHT31;63247;54.300;18.592;2023-02-03T09:58:34;-0.50;99.99
67249;SHT31;63247;54.300;18.592;2023-02-03T10:00:56;-0.63;99.99
67249;SHT31;63247;54.300;18.592;2023-02-03T10:15:00;-0.70;99.99
67249;SHT31;63247;54.300;18.592;2023-02-03T10:17:40;-0.70;99.99
67249;SHT31;63247;54.300;18.592;2023-02-03T10:22:36;-0.73;99.99
67249;SHT31;63247;54.300;18.592;2023-02-03T10:25:47;-0.80;99.99
67249;SHT31;63247;54.300;18.592;2023-02-03T10:28:18;-0.74;99.99
67249;SHT31;63247;54.300;18.592;2023-02-03T10:30:56;-0.79;99.99
67249;SHT31;63247;54.300;18.592;2023-02-03T10:33:28;-0.77;99.99
67249;SHT31;63247;54.300;18.592;2023-02-03T10:36:05;-0.80;99.99
67249;SHT31;63247;54.300;18.592;2023-02-03T10:41:04;-0.83;99.99
67249;SHT31;63247;54.300;18.592;2023-02-03T10:43:31;-0.80;99.99
67249;SHT31;63247;54.300;18.592;2023-02-03T10:46:19;-0.81;99.99
67249;SHT31;63247;54.300;18.592;2023-02-03T10:48:45;-0.79;99.99
67249;SHT31;63247;54.300;18.592;2023-02-03T10:51:22;-0.77;99.99
67249;SHT31;63247;54.300;18.592;2023-02-03T10:53:49;-0.74;99.99
67249;SHT31;63247;54.300;18.592;2023-02-03T10:56:31;-0.77;99.99
67249;SHT31;63247;54.300;18.592;2023-02-03T10:58:59;-0.74;99.99
67249;SHT31;63247;54.300;18.592;2023-02-03T11:01:48;-0.79;99.99
67249;SHT31;63247;54.300;18.592;2023-02-03T11:04:26;-0.80;99.99
67249;SHT31;63247;54.300;18.592;2023-02-03T11:06:58;-0.69;99.99
67249;SHT31;63247;54.300;18.592;2023-02-03T11:09:33;-0.70;99.99
67249;SHT31;63247;54.300;18.592;2023-02-03T11:12:05;-0.69;99.99
67249;SHT31;63247;54.300;18.592;2023-02-03T11:14:48;-0.67;99.99
67249;SHT31;63247;54.300;18.592;2023-02-03T11:17:25;-0.62;99.99
67249;SHT31;63247;54.300;18.592;2023-02-03T11:20:02;-0.56;99.99
67249;SHT31;63247;54.300;18.592;2023-02-03T11:22:33;-0.64;99.99
67249;SHT31;63247;54.300;18.592;2023-02-03T11:25:02;-0.62;99.99
67249;SHT31;63247;54.300;18.592;2023-02-03T11:27:29;-0.72;99.99
67249;SHT31;63247;54.300;18.592;2023-02-03T11:30:16;-0.73;99.99
67249;SHT31;63247;54.300;18.592;2023-02-03T11:32:43;-0.70;99.99
67249;SHT31;63247;54.300;18.592;2023-02-03T11:35:17;-0.70;99.99
67249;SHT31;63247;54.300;18.592;2023-02-03T11:37:45;-0.74;99.99
67249;SHT31;63247;54.300;18.592;2023-02-03T11:42:42;-0.69;99.99
67249;SHT31;63247;54.300;18.592;2023-02-03T11:47:46;-0.70;99.99
67249;SHT31;63247;54.300;18.592;2023-02-03T11:52:54;-0.66;99.99
67249;SHT31;63247;54.300;18.592;2023-02-03T11:55:30;-0.66;99.99
67249;SHT31;63247;54.300;18.592;2023-02-03T11:58:05;-0.69;99.99
67249;SHT31;63247;54.300;18.592;2023-02-03T12:00:56;-0.67;99.99
67249;SHT31;63247;54.300;18.592;2023-02-03T12:03:49;-0.66;99.99
67249;SHT31;63247;54.300;18.592;2023-02-03T12:23:36;-0.66;99.99
67249;SHT31;63247;54.300;18.592;2023-02-03T12:26:21;-0.64;99.99
67249;SHT31;63247;54.300;18.592;2023-02-03T12:29:00;-0.66;99.99
67249;SHT31;63247;54.300;18.592;2023-02-03T12:36:58;-0.63;99.99
67249;SHT31;63247;54.300;18.592;2023-02-03T12:42:20;-0.62;99.99
67249;SHT31;63247;54.300;18.592;2023-02-03T12:44:47;-0.63;99.99
67249;SHT31;63247;54.300;18.592;2023-02-03T12:47:33;-0.60;99.99
67249;SHT31;63247;54.300;18.592;2023-02-03T12:52:55;-0.64;99.99
67249;SHT31;63247;54.300;18.592;2023-02-03T12:55:37;-0.66;99.99
67249;SHT31;63247;54.300;18.592;2023-02-03T12:58:10;-0.62;99.99
67249;SHT31;63247;54.300;18.592;2023-02-03T13:00:50;-0.63;99.99
67249;SHT31;63247;54.300;18.592;2023-02-03T13:09:23;-0.63;99.99
67249;SHT31;63247;54.300;18.592;2023-02-03T13:12:02;-0.63;99.99
67249;SHT31;63247;54.300;18.592;2023-02-03T13:14:35;-0.62;99.99
67249;SHT31;63247;54.300;18.592;2023-02-03T13:17:19;-0.62;99.99
67249;SHT31;63247;54.300;18.592;2023-02-03T13:19:52;-0.62;99.99
67249;SHT31;63247;54.300;18.592;2023-02-03T13:22:21;-0.56;99.99
67249;SHT31;63247;54.300;18.592;2023-02-03T13:25:05;-0.57;99.99
67249;SHT31;63247;54.300;18.592;2023-02-03T13:30:39;-0.57;99.99
67249;SHT31;63247;54.300;18.592;2023-02-03T13:41:03;-0.57;99.99
67249;SHT31;63247;54.300;18.592;2023-02-03T13:43:34;-0.55;99.99
67249;SHT31;63247;54.300;18.592;2023-02-03T13:46:01;-0.53;99.99
67249;SHT31;63247;54.300;18.592;2023-02-03T13:48:29;-0.60;99.99
67249;SHT31;63247;54.300;18.592;2023-02-03T13:51:31;-0.53;99.99
67249;SHT31;63247;54.300;18.592;2023-02-03T13:54:07;-0.56;99.99
67249;SHT31;63247;54.300;18.592;2023-02-03T13:56:33;-0.56;99.99
67249;SHT31;63247;54.300;18.592;2023-02-03T14:01:40;-0.59;99.99
67249;SHT31;63247;54.300;18.592;2023-02-03T14:04:08;-0.62;99.99
67249;SHT31;63247;54.300;18.592;2023-02-03T14:06:55;-0.59;99.99
67249;SHT31;63247;54.300;18.592;2023-02-03T14:14:56;-0.64;99.99
67249;SHT31;63247;54.300;18.592;2023-02-03T14:19:58;-0.62;99.99
67249;SHT31;63247;54.300;18.592;2023-02-03T14:22:24;-0.63;99.99
67249;SHT31;63247;54.300;18.592;2023-02-03T14:24:53;-0.66;99.99
67249;SHT31;63247;54.300;18.592;2023-02-03T14:27:23;-0.62;99.99
67249;SHT31;63247;54.300;18.592;2023-02-03T14:30:09;-0.63;99.99
67249;SHT31;63247;54.300;18.592;2023-02-03T14:32:48;-0.69;99.99
67249;SHT31;63247;54.300;18.592;2023-02-03T14:38:01;-0.66;99.99
67249;SHT31;63247;54.300;18.592;2023-02-03T14:45:30;-0.70;99.99
67249;SHT31;63247;54.300;18.592;2023-02-03T14:53:19;-0.67;99.99
67249;SHT31;63247;54.300;18.592;2023-02-03T14:58:34;-0.73;99.99
67249;SHT31;63247;54.300;18.592;2023-02-03T15:01:04;-0.70;99.99
67249;SHT31;63247;54.300;18.592;2023-02-03T15:03:29;-0.72;99.99
67249;SHT31;63247;54.300;18.592;2023-02-03T15:06:01;-0.70;99.99
67249;SHT31;63247;54.300;18.592;2023-02-03T15:11:31;-0.69;99.99
67249;SHT31;63247;54.300;18.592;2023-02-03T15:14:23;-0.74;99.99
67249;SHT31;63247;54.300;18.592;2023-02-03T15:17:00;-0.70;99.99
67249;SHT31;63247;54.300;18.592;2023-02-03T15:19:38;-0.74;99.99
67249;SHT31;63247;54.300;18.592;2023-02-03T15:24:50;-0.70;99.99
67249;SHT31;63247;54.300;18.592;2023-02-03T15:27:24;-0.74;99.99
67249;SHT31;63247;54.300;18.592;2023-02-03T15:29:49;-0.74;99.99
67249;SHT31;63247;54.300;18.592;2023-02-03T15:32:30;-0.73;99.99
67249;SHT31;63247;54.300;18.592;2023-02-03T15:34:57;-0.72;99.99
67249;SHT31;63247;54.300;18.592;2023-02-03T15:39:59;-0.76;99.99
67249;SHT31;63247;54.300;18.592;2023-02-03T15:42:32;-0.74;99.99
67249;SHT31;63247;54.300;18.592;2023-02-03T15:47:50;-0.77;99.99
67249;SHT31;63247;54.300;18.592;2023-02-03T15:50:36;-0.74;99.99
67249;SHT31;63247;54.300;18.592;2023-02-03T15:53:16;-0.74;99.99
67249;SHT31;63247;54.300;18.592;2023-02-03T15:55:48;-0.77;99.99
67249;SHT31;63247;54.300;18.592;2023-02-03T15:58:25;-0.73;99.99
67249;SHT31;63247;54.300;18.592;2023-02-03T16:00:54;-0.76;99.99
67249;SHT31;63247;54.300;18.592;2023-02-03T16:03:27;-0.79;99.99
67249;SHT31;63247;54.300;18.592;2023-02-03T16:06:06;-0.74;99.99
67249;SHT31;63247;54.300;18.592;2023-02-03T16:11:00;-0.73;99.99
67249;SHT31;63247;54.300;18.592;2023-02-03T16:13:27;-0.72;99.99
67249;SHT31;63247;54.300;18.592;2023-02-03T16:16:00;-0.76;99.99
67249;SHT31;63247;54.300;18.592;2023-02-03T16:18:28;-0.72;99.99
67249;SHT31;63247;54.300;18.592;2023-02-03T16:20:53;-0.70;99.99
67249;SHT31;63247;54.300;18.592;2023-02-03T16:23:21;-0.67;99.99
67249;SHT31;63247;54.300;18.592;2023-02-03T16:26:14;-0.69;99.99
67249;SHT31;63247;54.300;18.592;2023-02-03T16:28:41;-0.69;99.99
67249;SHT31;63247;54.300;18.592;2023-02-03T16:31:25;-0.67;99.99
67249;SHT31;63247;54.300;18.592;2023-02-03T16:34:16;-0.66;99.99
67249;SHT31;63247;54.300;18.592;2023-02-03T16:37:00;-0.69;99.99
67249;SHT31;63247;54.300;18.592;2023-02-03T16:39:44;-0.69;99.99
67249;SHT31;63247;54.300;18.592;2023-02-03T16:42:37;-0.66;99.99
67249;SHT31;63247;54.300;18.592;2023-02-03T16:45:22;-0.64;99.99
67249;SHT31;63247;54.300;18.592;2023-02-03T16:48:09;-0.62;99.99
67249;SHT31;63247;54.300;18.592;2023-02-03T16:50:54;-0.64;99.99
67249;SHT31;63247;54.300;18.592;2023-02-03T16:53:28;-0.67;99.99
67249;SHT31;63247;54.300;18.592;2023-02-03T16:55:55;-0.67;99.99
67249;SHT31;63247;54.300;18.592;2023-02-03T16:58:21;-0.63;99.99
67249;SHT31;63247;54.300;18.592;2023-02-03T17:00:48;-0.66;99.99
67249;SHT31;63247;54.300;18.592;2023-02-03T17:03:16;-0.66;99.99
67249;SHT31;63247;54.300;18.592;2023-02-03T17:05:43;-0.66;99.99
67249;SHT31;63247;54.300;18.592;2023-02-03T17:08:09;-0.62;99.99
67249;SHT31;63247;54.300;18.592;2023-02-03T17:10:39;-0.63;99.99
67249;SHT31;63247;54.300;18.592;2023-02-03T17:13:05;-0.70;99.99
67249;SHT31;63247;54.300;18.592;2023-02-03T17:15:32;-0.67;99.99
67249;SHT31;63247;54.300;18.592;2023-02-03T17:17:57;-0.69;99.99
67249;SHT31;63247;54.300;18.592;2023-02-03T17:20:23;-0.69;99.99
67249;SHT31;63247;54.300;18.592;2023-02-03T17:22:48;-0.69;99.99
67249;SHT31;63247;54.300;18.592;2023-02-03T17:25:17;-0.67;99.99
67249;SHT31;63247;54.300;18.592;2023-02-03T17:27:43;-0.64;99.99
67249;SHT31;63247;54.300;18.592;2023-02-03T17:30:09;-0.67;99.99
67249;SHT31;63247;54.300;18.592;2023-02-03T17:32:34;-0.64;99.99
67249;SHT31;63247;54.300;18.592;2023-02-03T17:35:00;-0.66;99.99
67249;SHT31;63247;54.300;18.592;2023-02-03T17:37:25;-0.67;99.99
67249;SHT31;63247;54.300;18.592;2023-02-03T17:39:50;-0.66;99.99
67249;SHT31;63247;54.300;18.592;2023-02-03T17:42:16;-0.62;99.99
67249;SHT31;63247;54.300;18.592;2023-02-03T17:44:41;-0.62;99.99
67249;SHT31;63247;54.300;18.592;2023-02-03T17:47:07;-0.62;99.99
67249;SHT31;63247;54.300;18.592;2023-02-03T17:49:33;-0.63;99.99
67249;SHT31;63247;54.300;18.592;2023-02-03T17:51:58;-0.66;99.99